Terminal Aerodrome Forecast
Issued by NWS Melbourne, FL

Home | Current Version | Previous Version | Text Only | Print | Product List | Glossary On
Versions: 1 2 3 4 5 6 7 8 9 10 11 12 13 14 15 16 17 18 19 20
000
FTUS42 KMLB 230541
TAFVRB
TAF
KVRB 230541Z 2306/2406 08007KT P6SM VCSH SCT025 BKN035
     FM231400 16009KT P6SM VCSH SCT025 OVC040
     FM231900 19009KT 5SM SHRA SCT025 OVC035
      TEMPO 2319/2323 2SM +SHRA BKN025
     FM240000 25006KT P6SM VCSH BKN025=

USA.gov is the U.S. government's official web portal to all federal, state and local government web resources and services.